sensor_id;sensor_type;location;lat;lon;timestamp;P1;durP1;ratioP1;P2;durP2;ratioP2
14849;SDS011;7517;48.400;11.770;2023-07-09T00:01:48;4.87;;;4.37;;
14849;SDS011;7517;48.400;11.770;2023-07-09T00:04:16;5.10;;;4.60;;
14849;SDS011;7517;48.400;11.770;2023-07-09T00:06:45;4.83;;;4.37;;
14849;SDS011;7517;48.400;11.770;2023-07-09T00:09:13;5.70;;;4.50;;
14849;SDS011;7517;48.400;11.770;2023-07-09T00:11:44;5.77;;;4.77;;
14849;SDS011;7517;48.400;11.770;2023-07-09T00:14:14;4.93;;;4.33;;
14849;SDS011;7517;48.400;11.770;2023-07-09T00:16:44;6.20;;;4.43;;
14849;SDS011;7517;48.400;11.770;2023-07-09T00:19:14;6.07;;;4.57;;
14849;SDS011;7517;48.400;11.770;2023-07-09T00:21:48;5.00;;;4.40;;
14849;SDS011;7517;48.400;11.770;2023-07-09T00:24:18;4.43;;;4.03;;
14849;SDS011;7517;48.400;11.770;2023-07-09T00:26:46;5.90;;;4.57;;
14849;SDS011;7517;48.400;11.770;2023-07-09T00:29:15;7.40;;;4.83;;
14849;SDS011;7517;48.400;11.770;2023-07-09T00:31:44;5.57;;;4.57;;
14849;SDS011;7517;48.400;11.770;2023-07-09T00:34:14;4.77;;;4.33;;
14849;SDS011;7517;48.400;11.770;2023-07-09T00:36:48;4.60;;;4.03;;
14849;SDS011;7517;48.400;11.770;2023-07-09T00:39:17;6.57;;;4.50;;
14849;SDS011;7517;48.400;11.770;2023-07-09T00:41:47;5.57;;;4.37;;
14849;SDS011;7517;48.400;11.770;2023-07-09T00:44:25;5.50;;;4.50;;
14849;SDS011;7517;48.400;11.770;2023-07-09T00:50:04;5.27;;;4.43;;
14849;SDS011;7517;48.400;11.770;2023-07-09T00:52:42;4.57;;;4.10;;
14849;SDS011;7517;48.400;11.770;2023-07-09T00:55:19;5.47;;;4.70;;
14849;SDS011;7517;48.400;11.770;2023-07-09T00:57:51;5.00;;;4.43;;
14849;SDS011;7517;48.400;11.770;2023-07-09T01:00:25;4.00;;;3.70;;
14849;SDS011;7517;48.400;11.770;2023-07-09T01:03:11;4.40;;;4.00;;
14849;SDS011;7517;48.400;11.770;2023-07-09T01:05:48;6.13;;;4.87;;
14849;SDS011;7517;48.400;11.770;2023-07-09T01:08:23;5.13;;;4.27;;
14849;SDS011;7517;48.400;11.770;2023-07-09T01:10:52;7.07;;;4.63;;
14849;SDS011;7517;48.400;11.770;2023-07-09T01:13:19;5.17;;;4.67;;
14849;SDS011;7517;48.400;11.770;2023-07-09T01:15:47;4.83;;;4.33;;
14849;SDS011;7517;48.400;11.770;2023-07-09T01:18:15;4.80;;;4.30;;
14849;SDS011;7517;48.400;11.770;2023-07-09T01:20:42;5.40;;;4.77;;
14849;SDS011;7517;48.400;11.770;2023-07-09T01:23:13;5.40;;;4.57;;
14849;SDS011;7517;48.400;11.770;2023-07-09T01:25:43;5.97;;;4.60;;
14849;SDS011;7517;48.400;11.770;2023-07-09T01:28:19;5.27;;;4.77;;
14849;SDS011;7517;48.400;11.770;2023-07-09T01:30:47;5.47;;;4.60;;
14849;SDS011;7517;48.400;11.770;2023-07-09T01:33:19;4.90;;;4.03;;
14849;SDS011;7517;48.400;11.770;2023-07-09T01:35:48;4.77;;;4.00;;
14849;SDS011;7517;48.400;11.770;2023-07-09T01:38:19;5.53;;;4.97;;
14849;SDS011;7517;48.400;11.770;2023-07-09T01:40:47;5.63;;;4.80;;
14849;SDS011;7517;48.400;11.770;2023-07-09T01:43:14;5.10;;;4.60;;
14849;SDS011;7517;48.400;11.770;2023-07-09T01:45:41;4.93;;;4.43;;
14849;SDS011;7517;48.400;11.770;2023-07-09T01:48:09;4.73;;;4.27;;
14849;SDS011;7517;48.400;11.770;2023-07-09T01:50:40;6.13;;;4.93;;
14849;SDS011;7517;48.400;11.770;2023-07-09T01:53:10;14.30;;;4.73;;
14849;SDS011;7517;48.400;11.770;2023-07-09T01:55:41;5.50;;;4.37;;
14849;SDS011;7517;48.400;11.770;2023-07-09T01:58:09;5.17;;;4.57;;
14849;SDS011;7517;48.400;11.770;2023-07-09T02:00:37;5.93;;;4.20;;
14849;SDS011;7517;48.400;11.770;2023-07-09T02:03:06;5.00;;;4.50;;
14849;SDS011;7517;48.400;11.770;2023-07-09T02:05:35;6.07;;;4.60;;
14849;SDS011;7517;48.400;11.770;2023-07-09T02:08:03;6.07;;;5.10;;
14849;SDS011;7517;48.400;11.770;2023-07-09T02:10:31;4.93;;;4.43;;
14849;SDS011;7517;48.400;11.770;2023-07-09T02:12:59;5.13;;;4.63;;
14849;SDS011;7517;48.400;11.770;2023-07-09T02:15:27;5.67;;;5.03;;
14849;SDS011;7517;48.400;11.770;2023-07-09T02:17:55;5.73;;;5.13;;
14849;SDS011;7517;48.400;11.770;2023-07-09T02:20:24;5.30;;;4.80;;
14849;SDS011;7517;48.400;11.770;2023-07-09T02:22:52;5.63;;;4.17;;
14849;SDS011;7517;48.400;11.770;2023-07-09T02:25:19;5.37;;;4.63;;
14849;SDS011;7517;48.400;11.770;2023-07-09T02:27:46;5.13;;;4.63;;
14849;SDS011;7517;48.400;11.770;2023-07-09T02:30:16;5.27;;;4.77;;
14849;SDS011;7517;48.400;11.770;2023-07-09T02:32:43;5.33;;;4.83;;
14849;SDS011;7517;48.400;11.770;2023-07-09T02:35:11;5.57;;;5.00;;
14849;SDS011;7517;48.400;11.770;2023-07-09T02:37:38;6.07;;;5.27;;
14849;SDS011;7517;48.400;11.770;2023-07-09T02:40:07;5.63;;;5.00;;
14849;SDS011;7517;48.400;11.770;2023-07-09T02:42:38;5.47;;;4.47;;
14849;SDS011;7517;48.400;11.770;2023-07-09T02:45:08;6.40;;;4.53;;
14849;SDS011;7517;48.400;11.770;2023-07-09T02:47:38;6.07;;;4.87;;
14849;SDS011;7517;48.400;11.770;2023-07-09T02:50:06;4.83;;;4.40;;
14849;SDS011;7517;48.400;11.770;2023-07-09T02:52:33;5.80;;;4.77;;
14849;SDS011;7517;48.400;11.770;2023-07-09T02:55:01;4.80;;;4.30;;
14849;SDS011;7517;48.400;11.770;2023-07-09T02:57:29;5.60;;;4.50;;
14849;SDS011;7517;48.400;11.770;2023-07-09T02:59:56;5.40;;;4.43;;
14849;SDS011;7517;48.400;11.770;2023-07-09T03:02:25;5.13;;;4.53;;
14849;SDS011;7517;48.400;11.770;2023-07-09T03:04:56;4.80;;;4.30;;
14849;SDS011;7517;48.400;11.770;2023-07-09T03:07:24;6.90;;;5.17;;
14849;SDS011;7517;48.400;11.770;2023-07-09T03:09:51;5.43;;;4.87;;
14849;SDS011;7517;48.400;11.770;2023-07-09T03:12:19;5.83;;;4.53;;
14849;SDS011;7517;48.400;11.770;2023-07-09T03:14:47;4.70;;;4.30;;
14849;SDS011;7517;48.400;11.770;2023-07-09T03:17:15;5.20;;;4.70;;
14849;SDS011;7517;48.400;11.770;2023-07-09T03:19:43;7.03;;;4.90;;
14849;SDS011;7517;48.400;11.770;2023-07-09T03:22:12;7.50;;;4.60;;
14849;SDS011;7517;48.400;11.770;2023-07-09T03:24:39;5.27;;;4.40;;
14849;SDS011;7517;48.400;11.770;2023-07-09T03:27:06;5.13;;;4.30;;
14849;SDS011;7517;48.400;11.770;2023-07-09T03:29:34;5.17;;;4.40;;
14849;SDS011;7517;48.400;11.770;2023-07-09T03:32:02;5.17;;;4.63;;
14849;SDS011;7517;48.400;11.770;2023-07-09T03:34:30;5.57;;;4.50;;
14849;SDS011;7517;48.400;11.770;2023-07-09T03:36:58;5.20;;;4.70;;
14849;SDS011;7517;48.400;11.770;2023-07-09T03:39:28;6.43;;;4.77;;
14849;SDS011;7517;48.400;11.770;2023-07-09T03:41:55;5.60;;;4.70;;
14849;SDS011;7517;48.400;11.770;2023-07-09T03:44:23;5.80;;;4.43;;
14849;SDS011;7517;48.400;11.770;2023-07-09T03:46:53;5.40;;;4.40;;
14849;SDS011;7517;48.400;11.770;2023-07-09T03:49:21;4.90;;;4.40;;
14849;SDS011;7517;48.400;11.770;2023-07-09T03:51:48;6.30;;;4.60;;
14849;SDS011;7517;48.400;11.770;2023-07-09T03:54:16;6.00;;;4.97;;
14849;SDS011;7517;48.400;11.770;2023-07-09T03:56:44;4.80;;;4.40;;
14849;SDS011;7517;48.400;11.770;2023-07-09T03:59:12;4.70;;;4.13;;
14849;SDS011;7517;48.400;11.770;2023-07-09T04:01:39;5.50;;;4.80;;
14849;SDS011;7517;48.400;11.770;2023-07-09T04:04:09;4.80;;;4.07;;
14849;SDS011;7517;48.400;11.770;2023-07-09T04:06:36;4.97;;;4.40;;
14849;SDS011;7517;48.400;11.770;2023-07-09T04:09:04;5.10;;;4.20;;
14849;SDS011;7517;48.400;11.770;2023-07-09T04:11:32;5.30;;;4.17;;
14849;SDS011;7517;48.400;11.770;2023-07-09T04:14:01;5.07;;;4.50;;
14849;SDS011;7517;48.400;11.770;2023-07-09T04:16:28;4.67;;;4.27;;
14849;SDS011;7517;48.400;11.770;2023-07-09T04:18:56;4.93;;;4.40;;
14849;SDS011;7517;48.400;11.770;2023-07-09T04:21:23;4.87;;;4.17;;
14849;SDS011;7517;48.400;11.770;2023-07-09T04:23:51;5.20;;;4.70;;
14849;SDS011;7517;48.400;11.770;2023-07-09T04:26:18;5.33;;;4.20;;
14849;SDS011;7517;48.400;11.770;2023-07-09T04:28:45;4.50;;;4.10;;
14849;SDS011;7517;48.400;11.770;2023-07-09T04:31:14;4.83;;;4.43;;
14849;SDS011;7517;48.400;11.770;2023-07-09T04:33:41;5.37;;;4.40;;
14849;SDS011;7517;48.400;11.770;2023-07-09T04:36:10;5.13;;;4.63;;
14849;SDS011;7517;48.400;11.770;2023-07-09T04:38:38;5.57;;;4.43;;
14849;SDS011;7517;48.400;11.770;2023-07-09T04:41:05;5.37;;;4.83;;
14849;SDS011;7517;48.400;11.770;2023-07-09T04:43:32;5.23;;;4.33;;
14849;SDS011;7517;48.400;11.770;2023-07-09T04:46:00;5.17;;;4.67;;
14849;SDS011;7517;48.400;11.770;2023-07-09T04:48:30;5.93;;;4.77;;
14849;SDS011;7517;48.400;11.770;2023-07-09T04:50:57;5.47;;;4.97;;
14849;SDS011;7517;48.400;11.770;2023-07-09T04:53:24;5.60;;;5.03;;
14849;SDS011;7517;48.400;11.770;2023-07-09T04:55:52;6.03;;;4.87;;
14849;SDS011;7517;48.400;11.770;2023-07-09T04:58:20;5.30;;;4.80;;
14849;SDS011;7517;48.400;11.770;2023-07-09T05:00:48;6.07;;;5.33;;
14849;SDS011;7517;48.400;11.770;2023-07-09T05:03:16;6.47;;;4.67;;
14849;SDS011;7517;48.400;11.770;2023-07-09T05:05:51;5.87;;;5.10;;
14849;SDS011;7517;48.400;11.770;2023-07-09T05:08:19;5.33;;;4.80;;
14849;SDS011;7517;48.400;11.770;2023-07-09T05:10:49;6.83;;;5.20;;
14849;SDS011;7517;48.400;11.770;2023-07-09T05:13:18;5.23;;;4.73;;
14849;SDS011;7517;48.400;11.770;2023-07-09T05:15:46;4.93;;;4.23;;
14849;SDS011;7517;48.400;11.770;2023-07-09T05:18:17;4.93;;;4.53;;
14849;SDS011;7517;48.400;11.770;2023-07-09T05:20:45;8.57;;;4.67;;
14849;SDS011;7517;48.400;11.770;2023-07-09T05:23:15;4.63;;;4.13;;
14849;SDS011;7517;48.400;11.770;2023-07-09T05:25:43;6.53;;;4.53;;
14849;SDS011;7517;48.400;11.770;2023-07-09T05:28:10;4.93;;;3.97;;
14849;SDS011;7517;48.400;11.770;2023-07-09T05:30:40;5.53;;;4.33;;
14849;SDS011;7517;48.400;11.770;2023-07-09T05:33:08;4.53;;;3.80;;
14849;SDS011;7517;48.400;11.770;2023-07-09T05:35:35;6.17;;;4.07;;
14849;SDS011;7517;48.400;11.770;2023-07-09T05:38:03;4.53;;;3.80;;
14849;SDS011;7517;48.400;11.770;2023-07-09T05:40:32;6.53;;;3.83;;
14849;SDS011;7517;48.400;11.770;2023-07-09T05:42:59;3.97;;;3.57;;
14849;SDS011;7517;48.400;11.770;2023-07-09T05:45:26;4.37;;;3.63;;
14849;SDS011;7517;48.400;11.770;2023-07-09T05:47:54;4.50;;;3.50;;
14849;SDS011;7517;48.400;11.770;2023-07-09T05:50:21;3.70;;;3.40;;
14849;SDS011;7517;48.400;11.770;2023-07-09T05:52:48;4.27;;;3.70;;
14849;SDS011;7517;48.400;11.770;2023-07-09T05:55:16;4.67;;;3.77;;
14849;SDS011;7517;48.400;11.770;2023-07-09T05:57:45;5.23;;;3.93;;
14849;SDS011;7517;48.400;11.770;2023-07-09T06:00:13;3.40;;;3.10;;
14849;SDS011;7517;48.400;11.770;2023-07-09T06:02:42;5.37;;;3.17;;
14849;SDS011;7517;48.400;11.770;2023-07-09T06:05:10;4.07;;;3.30;;
14849;SDS011;7517;48.400;11.770;2023-07-09T06:07:38;6.70;;;3.67;;
14849;SDS011;7517;48.400;11.770;2023-07-09T06:10:06;4.73;;;3.87;;
14849;SDS011;7517;48.400;11.770;2023-07-09T06:12:35;4.20;;;3.40;;
14849;SDS011;7517;48.400;11.770;2023-07-09T06:15:04;3.80;;;3.47;;
14849;SDS011;7517;48.400;11.770;2023-07-09T06:17:33;4.07;;;3.50;;
14849;SDS011;7517;48.400;11.770;2023-07-09T06:20:02;5.57;;;3.20;;
14849;SDS011;7517;48.400;11.770;2023-07-09T06:22:30;4.33;;;3.40;;
14849;SDS011;7517;48.400;11.770;2023-07-09T06:24:58;5.67;;;3.43;;
14849;SDS011;7517;48.400;11.770;2023-07-09T06:27:27;6.13;;;3.23;;
14849;SDS011;7517;48.400;11.770;2023-07-09T06:29:54;4.73;;;3.73;;
14849;SDS011;7517;48.400;11.770;2023-07-09T06:32:23;4.70;;;3.70;;
14849;SDS011;7517;48.400;11.770;2023-07-09T06:34:51;3.87;;;3.50;;
14849;SDS011;7517;48.400;11.770;2023-07-09T06:37:18;4.50;;;3.50;;
14849;SDS011;7517;48.400;11.770;2023-07-09T06:39:47;4.40;;;3.27;;
14849;SDS011;7517;48.400;11.770;2023-07-09T06:42:15;3.53;;;3.23;;
14849;SDS011;7517;48.400;11.770;2023-07-09T06:44:42;4.90;;;3.53;;
14849;SDS011;7517;48.400;11.770;2023-07-09T06:47:10;4.60;;;3.03;;
14849;SDS011;7517;48.400;11.770;2023-07-09T06:49:39;3.77;;;3.30;;
14849;SDS011;7517;48.400;11.770;2023-07-09T06:52:07;6.80;;;3.13;;
14849;SDS011;7517;48.400;11.770;2023-07-09T06:54:34;3.43;;;3.10;;
14849;SDS011;7517;48.400;11.770;2023-07-09T06:57:01;3.33;;;3.00;;
14849;SDS011;7517;48.400;11.770;2023-07-09T06:59:29;3.43;;;3.13;;
14849;SDS011;7517;48.400;11.770;2023-07-09T07:01:57;3.57;;;3.23;;
14849;SDS011;7517;48.400;11.770;2023-07-09T07:04:25;5.87;;;3.37;;
14849;SDS011;7517;48.400;11.770;2023-07-09T07:06:55;3.17;;;2.90;;
14849;SDS011;7517;48.400;11.770;2023-07-09T07:09:22;4.37;;;2.97;;
14849;SDS011;7517;48.400;11.770;2023-07-09T07:11:50;3.20;;;2.90;;
14849;SDS011;7517;48.400;11.770;2023-07-09T07:14:17;5.33;;;3.50;;
14849;SDS011;7517;48.400;11.770;2023-07-09T07:16:44;4.20;;;2.83;;
14849;SDS011;7517;48.400;11.770;2023-07-09T07:19:12;3.10;;;2.80;;
14849;SDS011;7517;48.400;11.770;2023-07-09T07:21:39;3.20;;;2.90;;
14849;SDS011;7517;48.400;11.770;2023-07-09T07:24:08;4.80;;;3.10;;
14849;SDS011;7517;48.400;11.770;2023-07-09T07:26:35;2.87;;;2.43;;
14849;SDS011;7517;48.400;11.770;2023-07-09T07:29:02;4.30;;;2.60;;
14849;SDS011;7517;48.400;11.770;2023-07-09T07:31:30;4.90;;;2.80;;
14849;SDS011;7517;48.400;11.770;2023-07-09T07:33:57;3.55;;;3.13;;
14849;SDS011;7517;48.400;11.770;2023-07-09T07:36:24;3.00;;;2.50;;
14849;SDS011;7517;48.400;11.770;2023-07-09T07:38:52;2.70;;;2.50;;
14849;SDS011;7517;48.400;11.770;2023-07-09T07:41:22;2.50;;;2.30;;
14849;SDS011;7517;48.400;11.770;2023-07-09T07:43:49;2.70;;;2.50;;
14849;SDS011;7517;48.400;11.770;2023-07-09T07:46:16;2.70;;;2.35;;
14849;SDS011;7517;48.400;11.770;2023-07-09T07:48:44;2.58;;;2.15;;
14849;SDS011;7517;48.400;11.770;2023-07-09T07:51:11;2.63;;;2.05;;
14849;SDS011;7517;48.400;11.770;2023-07-09T07:53:39;2.60;;;2.40;;
14849;SDS011;7517;48.400;11.770;2023-07-09T07:56:06;2.92;;;2.47;;
14849;SDS011;7517;48.400;11.770;2023-07-09T07:58:35;2.47;;;2.25;;
14849;SDS011;7517;48.400;11.770;2023-07-09T08:01:02;2.30;;;2.03;;
14849;SDS011;7517;48.400;11.770;2023-07-09T08:03:29;3.15;;;2.65;;
14849;SDS011;7517;48.400;11.770;2023-07-09T08:05:57;2.25;;;2.05;;
14849;SDS011;7517;48.400;11.770;2023-07-09T08:08:24;2.33;;;2.10;;
14849;SDS011;7517;48.400;11.770;2023-07-09T08:10:59;2.20;;;2.00;;
14849;SDS011;7517;48.400;11.770;2023-07-09T08:13:29;2.40;;;2.20;;
14849;SDS011;7517;48.400;11.770;2023-07-09T08:15:59;2.40;;;2.20;;
14849;SDS011;7517;48.400;11.770;2023-07-09T08:18:27;3.63;;;2.00;;
14849;SDS011;7517;48.400;11.770;2023-07-09T08:20:55;2.25;;;2.05;;
14849;SDS011;7517;48.400;11.770;2023-07-09T08:23:22;2.53;;;2.20;;
14849;SDS011;7517;48.400;11.770;2023-07-09T08:25:52;4.47;;;2.58;;
14849;SDS011;7517;48.400;11.770;2023-07-09T08:28:19;2.97;;;2.05;;
14849;SDS011;7517;48.400;11.770;2023-07-09T08:30:47;2.95;;;2.45;;
14849;SDS011;7517;48.400;11.770;2023-07-09T08:33:16;2.88;;;1.98;;
14849;SDS011;7517;48.400;11.770;2023-07-09T08:35:43;2.65;;;2.00;;
14849;SDS011;7517;48.400;11.770;2023-07-09T08:38:10;7.15;;;2.75;;
14849;SDS011;7517;48.400;11.770;2023-07-09T08:40:38;2.00;;;1.90;;
14849;SDS011;7517;48.400;11.770;2023-07-09T08:43:10;1.98;;;1.80;;
14849;SDS011;7517;48.400;11.770;2023-07-09T08:45:54;2.28;;;1.65;;
14849;SDS011;7517;48.400;11.770;2023-07-09T08:48:36;2.00;;;1.90;;
14849;SDS011;7517;48.400;11.770;2023-07-09T08:51:10;2.30;;;1.90;;
14849;SDS011;7517;48.400;11.770;2023-07-09T08:53:46;2.15;;;1.70;;
14849;SDS011;7517;48.400;11.770;2023-07-09T08:56:18;2.10;;;1.90;;
14849;SDS011;7517;48.400;11.770;2023-07-09T08:58:47;1.80;;;1.70;;
14849;SDS011;7517;48.400;11.770;2023-07-09T09:01:19;2.33;;;2.13;;
14849;SDS011;7517;48.400;11.770;2023-07-09T09:03:52;2.00;;;1.77;;
14849;SDS011;7517;48.400;11.770;2023-07-09T09:06:28;2.63;;;2.10;;
14849;SDS011;7517;48.400;11.770;2023-07-09T09:09:00;3.03;;;1.95;;
14849;SDS011;7517;48.400;11.770;2023-07-09T09:11:41;8.15;;;2.45;;
14849;SDS011;7517;48.400;11.770;2023-07-09T09:14:17;1.85;;;1.48;;
14849;SDS011;7517;48.400;11.770;2023-07-09T09:16:52;2.53;;;1.80;;
14849;SDS011;7517;48.400;11.770;2023-07-09T09:19:25;3.17;;;1.63;;
14849;SDS011;7517;48.400;11.770;2023-07-09T09:22:02;1.67;;;1.52;;
14849;SDS011;7517;48.400;11.770;2023-07-09T09:24:35;2.55;;;1.55;;
14849;SDS011;7517;48.400;11.770;2023-07-09T09:27:09;2.00;;;1.80;;
14849;SDS011;7517;48.400;11.770;2023-07-09T09:29:36;2.08;;;1.90;;
14849;SDS011;7517;48.400;11.770;2023-07-09T09:32:12;1.45;;;1.35;;
14849;SDS011;7517;48.400;11.770;2023-07-09T09:34:52;3.47;;;1.73;;
14849;SDS011;7517;48.400;11.770;2023-07-09T09:37:23;1.73;;;1.63;;
14849;SDS011;7517;48.400;11.770;2023-07-09T09:39:55;1.73;;;1.63;;
14849;SDS011;7517;48.400;11.770;2023-07-09T09:42:23;1.80;;;1.45;;
14849;SDS011;7517;48.400;11.770;2023-07-09T09:44:53;2.22;;;1.70;;
14849;SDS011;7517;48.400;11.770;2023-07-09T09:47:21;2.25;;;1.92;;
14849;SDS011;7517;48.400;11.770;2023-07-09T09:49:54;1.50;;;1.40;;
14849;SDS011;7517;48.400;11.770;2023-07-09T09:52:24;1.45;;;1.10;;
14849;SDS011;7517;48.400;11.770;2023-07-09T09:55:01;1.50;;;1.40;;
14849;SDS011;7517;48.400;11.770;2023-07-09T09:57:37;1.38;;;1.27;;
14849;SDS011;7517;48.400;11.770;2023-07-09T10:00:04;1.45;;;1.35;;
14849;SDS011;7517;48.400;11.770;2023-07-09T10:02:41;1.70;;;1.50;;
14849;SDS011;7517;48.400;11.770;2023-07-09T10:05:15;1.80;;;1.30;;
14849;SDS011;7517;48.400;11.770;2023-07-09T10:07:49;1.75;;;1.65;;
14849;SDS011;7517;48.400;11.770;2023-07-09T10:10:28;2.20;;;1.48;;
14849;SDS011;7517;48.400;11.770;2023-07-09T10:13:00;1.42;;;1.33;;
14849;SDS011;7517;48.400;11.770;2023-07-09T10:15:40;1.60;;;1.50;;
14849;SDS011;7517;48.400;11.770;2023-07-09T10:18:21;2.10;;;1.35;;
14849;SDS011;7517;48.400;11.770;2023-07-09T10:21:07;1.80;;;1.52;;
14849;SDS011;7517;48.400;11.770;2023-07-09T10:23:45;1.52;;;1.42;;
14849;SDS011;7517;48.400;11.770;2023-07-09T10:26:26;3.20;;;1.42;;
14849;SDS011;7517;48.400;11.770;2023-07-09T10:29:07;1.60;;;1.50;;
14849;SDS011;7517;48.400;11.770;2023-07-09T10:32:20;2.17;;;1.55;;
14849;SDS011;7517;48.400;11.770;2023-07-09T10:35:07;2.28;;;1.40;;
14849;SDS011;7517;48.400;11.770;2023-07-09T10:37:48;3.03;;;1.50;;
14849;SDS011;7517;48.400;11.770;2023-07-09T10:40:34;1.73;;;1.50;;
14849;SDS011;7517;48.400;11.770;2023-07-09T10:43:09;2.00;;;1.60;;
14849;SDS011;7517;48.400;11.770;2023-07-09T10:45:43;1.40;;;1.30;;
14849;SDS011;7517;48.400;11.770;2023-07-09T10:48:25;1.40;;;1.30;;
14849;SDS011;7517;48.400;11.770;2023-07-09T10:51:02;2.35;;;1.60;;
14849;SDS011;7517;48.400;11.770;2023-07-09T10:53:36;2.38;;;1.40;;
14849;SDS011;7517;48.400;11.770;2023-07-09T10:56:10;2.72;;;1.60;;
14849;SDS011;7517;48.400;11.770;2023-07-09T10:58:43;4.10;;;1.35;;
14849;SDS011;7517;48.400;11.770;2023-07-09T11:01:23;1.70;;;1.58;;
14849;SDS011;7517;48.400;11.770;2023-07-09T11:03:59;2.97;;;1.70;;
14849;SDS011;7517;48.400;11.770;2023-07-09T11:06:32;2.63;;;1.40;;
14849;SDS011;7517;48.400;11.770;2023-07-09T11:09:10;2.17;;;1.27;;
14849;SDS011;7517;48.400;11.770;2023-07-09T11:11:53;1.73;;;1.45;;
14849;SDS011;7517;48.400;11.770;2023-07-09T11:14:26;1.88;;;1.77;;
14849;SDS011;7517;48.400;11.770;2023-07-09T11:16:58;2.00;;;1.80;;
14849;SDS011;7517;48.400;11.770;2023-07-09T11:19:26;1.90;;;1.50;;
14849;SDS011;7517;48.400;11.770;2023-07-09T11:21:57;1.98;;;1.60;;
14849;SDS011;7517;48.400;11.770;2023-07-09T11:24:35;1.70;;;1.55;;
14849;SDS011;7517;48.400;11.770;2023-07-09T11:27:20;2.25;;;1.75;;
14849;SDS011;7517;48.400;11.770;2023-07-09T11:29:56;2.45;;;1.40;;
14849;SDS011;7517;48.400;11.770;2023-07-09T11:32:26;1.73;;;1.60;;
14849;SDS011;7517;48.400;11.770;2023-07-09T11:35:05;1.60;;;1.50;;
14849;SDS011;7517;48.400;11.770;2023-07-09T11:37:44;2.33;;;1.80;;
14849;SDS011;7517;48.400;11.770;2023-07-09T11:40:14;2.03;;;1.58;;
14849;SDS011;7517;48.400;11.770;2023-07-09T11:42:52;2.30;;;1.75;;
14849;SDS011;7517;48.400;11.770;2023-07-09T11:45:23;3.20;;;1.58;;
14849;SDS011;7517;48.400;11.770;2023-07-09T11:47:58;1.92;;;1.83;;
14849;SDS011;7517;48.400;11.770;2023-07-09T11:50:41;1.83;;;1.67;;
14849;SDS011;7517;48.400;11.770;2023-07-09T11:53:19;2.05;;;1.73;;
14849;SDS011;7517;48.400;11.770;2023-07-09T11:56:00;2.60;;;1.58;;
14849;SDS011;7517;48.400;11.770;2023-07-09T11:58:27;3.13;;;1.48;;
14849;SDS011;7517;48.400;11.770;2023-07-09T12:00:55;3.22;;;1.88;;
14849;SDS011;7517;48.400;11.770;2023-07-09T12:03:25;2.38;;;1.90;;
14849;SDS011;7517;48.400;11.770;2023-07-09T12:05:59;2.40;;;1.88;;
14849;SDS011;7517;48.400;11.770;2023-07-09T12:08:31;1.58;;;1.45;;
14849;SDS011;7517;48.400;11.770;2023-07-09T12:11:04;2.15;;;1.75;;
14849;SDS011;7517;48.400;11.770;2023-07-09T12:13:44;1.73;;;1.63;;
14849;SDS011;7517;48.400;11.770;2023-07-09T12:16:22;2.42;;;1.70;;
14849;SDS011;7517;48.400;11.770;2023-07-09T12:18:54;1.52;;;1.35;;
14849;SDS011;7517;48.400;11.770;2023-07-09T12:21:22;2.03;;;1.85;;
14849;SDS011;7517;48.400;11.770;2023-07-09T12:23:50;3.45;;;1.65;;
14849;SDS011;7517;48.400;11.770;2023-07-09T12:26:22;1.60;;;1.42;;
14849;SDS011;7517;48.400;11.770;2023-07-09T12:28:50;1.40;;;1.30;;
14849;SDS011;7517;48.400;11.770;2023-07-09T12:31:21;1.92;;;1.42;;
14849;SDS011;7517;48.400;11.770;2023-07-09T12:33:54;1.52;;;1.42;;
14849;SDS011;7517;48.400;11.770;2023-07-09T12:36:24;2.17;;;1.45;;
14849;SDS011;7517;48.400;11.770;2023-07-09T12:38:53;2.92;;;1.75;;
14849;SDS011;7517;48.400;11.770;2023-07-09T12:41:34;1.70;;;1.60;;
14849;SDS011;7517;48.400;11.770;2023-07-09T12:44:05;2.38;;;1.85;;
14849;SDS011;7517;48.400;11.770;2023-07-09T12:46:44;2.22;;;1.45;;
14849;SDS011;7517;48.400;11.770;2023-07-09T12:49:18;1.80;;;1.30;;
14849;SDS011;7517;48.400;11.770;2023-07-09T12:51:49;2.33;;;1.60;;
14849;SDS011;7517;48.400;11.770;2023-07-09T12:54:17;2.78;;;1.70;;
14849;SDS011;7517;48.400;11.770;2023-07-09T12:56:51;3.50;;;2.03;;
14849;SDS011;7517;48.400;11.770;2023-07-09T12:59:22;2.00;;;1.63;;
14849;SDS011;7517;48.400;11.770;2023-07-09T13:01:55;1.98;;;1.55;;
14849;SDS011;7517;48.400;11.770;2023-07-09T13:04:30;1.88;;;1.60;;
14849;SDS011;7517;48.400;11.770;2023-07-09T13:07:00;2.35;;;1.80;;
14849;SDS011;7517;48.400;11.770;2023-07-09T13:09:27;1.63;;;1.40;;
14849;SDS011;7517;48.400;11.770;2023-07-09T13:11:57;2.38;;;1.55;;
14849;SDS011;7517;48.400;11.770;2023-07-09T13:14:26;1.80;;;1.65;;
14849;SDS011;7517;48.400;11.770;2023-07-09T13:17:01;3.55;;;1.75;;
14849;SDS011;7517;48.400;11.770;2023-07-09T13:19:31;2.33;;;1.48;;
14849;SDS011;7517;48.400;11.770;2023-07-09T13:21:59;1.90;;;1.65;;
14849;SDS011;7517;48.400;11.770;2023-07-09T13:24:27;1.52;;;1.42;;
14849;SDS011;7517;48.400;11.770;2023-07-09T13:26:59;1.95;;;1.50;;
14849;SDS011;7517;48.400;11.770;2023-07-09T13:29:27;1.60;;;1.38;;
14849;SDS011;7517;48.400;11.770;2023-07-09T13:31:54;4.22;;;1.60;;
14849;SDS011;7517;48.400;11.770;2023-07-09T13:34:22;1.70;;;1.60;;
14849;SDS011;7517;48.400;11.770;2023-07-09T13:36:53;3.83;;;1.95;;
14849;SDS011;7517;48.400;11.770;2023-07-09T13:39:24;3.05;;;1.95;;
14849;SDS011;7517;48.400;11.770;2023-07-09T13:41:52;1.92;;;1.65;;
14849;SDS011;7517;48.400;11.770;2023-07-09T13:44:22;1.95;;;1.75;;
14849;SDS011;7517;48.400;11.770;2023-07-09T13:46:52;3.65;;;1.60;;
14849;SDS011;7517;48.400;11.770;2023-07-09T13:49:21;2.38;;;1.75;;
14849;SDS011;7517;48.400;11.770;2023-07-09T13:51:53;2.90;;;1.30;;
14849;SDS011;7517;48.400;11.770;2023-07-09T13:54:24;1.90;;;1.42;;
14849;SDS011;7517;48.400;11.770;2023-07-09T13:56:56;1.75;;;1.50;;
14849;SDS011;7517;48.400;11.770;2023-07-09T13:59:26;1.85;;;1.48;;
14849;SDS011;7517;48.400;11.770;2023-07-09T14:01:56;1.77;;;1.23;;
14849;SDS011;7517;48.400;11.770;2023-07-09T14:04:26;1.67;;;1.58;;
14849;SDS011;7517;48.400;11.770;2023-07-09T14:06:54;2.22;;;1.60;;
14849;SDS011;7517;48.400;11.770;2023-07-09T14:09:22;1.50;;;1.40;;
14849;SDS011;7517;48.400;11.770;2023-07-09T14:11:51;1.75;;;1.50;;
14849;SDS011;7517;48.400;11.770;2023-07-09T14:14:21;2.70;;;1.50;;
14849;SDS011;7517;48.400;11.770;2023-07-09T14:16:55;2.83;;;1.60;;
14849;SDS011;7517;48.400;11.770;2023-07-09T14:19:23;1.52;;;1.40;;
14849;SDS011;7517;48.400;11.770;2023-07-09T14:21:51;2.60;;;1.75;;
14849;SDS011;7517;48.400;11.770;2023-07-09T14:24:21;1.70;;;1.60;;
14849;SDS011;7517;48.400;11.770;2023-07-09T14:26:51;1.77;;;1.42;;
14849;SDS011;7517;48.400;11.770;2023-07-09T14:29:20;1.80;;;1.40;;
14849;SDS011;7517;48.400;11.770;2023-07-09T14:31:49;3.33;;;1.35;;
14849;SDS011;7517;48.400;11.770;2023-07-09T14:34:18;2.58;;;1.60;;
14849;SDS011;7517;48.400;11.770;2023-07-09T14:36:49;2.35;;;1.73;;
14849;SDS011;7517;48.400;11.770;2023-07-09T14:39:19;2.95;;;1.85;;
14849;SDS011;7517;48.400;11.770;2023-07-09T14:41:47;2.47;;;1.50;;
14849;SDS011;7517;48.400;11.770;2023-07-09T14:44:20;1.77;;;1.67;;
14849;SDS011;7517;48.400;11.770;2023-07-09T14:46:53;1.75;;;1.65;;
14849;SDS011;7517;48.400;11.770;2023-07-09T14:49:23;2.55;;;1.50;;
14849;SDS011;7517;48.400;11.770;2023-07-09T14:51:51;2.30;;;1.50;;
14849;SDS011;7517;48.400;11.770;2023-07-09T14:54:20;2.55;;;1.80;;
14849;SDS011;7517;48.400;11.770;2023-07-09T14:56:51;1.52;;;1.42;;
14849;SDS011;7517;48.400;11.770;2023-07-09T14:59:20;2.50;;;1.60;;
14849;SDS011;7517;48.400;11.770;2023-07-09T15:01:47;2.05;;;1.77;;
14849;SDS011;7517;48.400;11.770;2023-07-09T15:04:25;2.38;;;1.30;;
14849;SDS011;7517;48.400;11.770;2023-07-09T15:06:59;2.33;;;1.65;;
14849;SDS011;7517;48.400;11.770;2023-07-09T15:09:27;1.48;;;1.38;;
14849;SDS011;7517;48.400;11.770;2023-07-09T15:11:55;3.10;;;1.60;;